Tuxedo, Maryland
Current Conditions -  °F | °C
As of 5:50 AM on Wednesday 22 Oct 2014 (Local Time) from KCGS Reporting Station
Overcast Overcast  
Wind Chill: 54°   Ceiling: 4300
Heat Index: 54°   Visibility: 10mi
Dew Point: 52°   Wind: 0mph
Humidity: 94%   Direction: NA
Pressure: 29.87"   Gusts: NA
Location:  38.9534°N, 76.9444°W
Report Text: KCGS 220950Z AUTO 00000KT 10SM SCT012 BKN043 OVC060 12/11 A2987 RMK AO1
Loading
Personal Weather Stations






























Interactive Weather Map
Tropical Storm Tracking
New forecast layout! Learn more

10-Day Weather Forecast

Advertisements
Track Severe Weather on mobile